LSZR/ACH METAR and TAF weather

Enter ICAO airport designator
Station Type Date Time Source
LSZR METAR 2019/10/23 20:20 UTC NOAA

LSZR 232020Z AUTO 27006KT 230V290 9999 -RA BKN/// 13/12 Q1011


Station Type Date Time Source
LSZR Decoded METAR 2019/10/23 20:20 UTC NOAA

Saint Gallen-Altenrhein, Switzerland (LSZR) 47-29-06N 009-33-43E
Oct 23, 2019 - 04:20 PM EDT / 2019.10.23 2020 UTC
Wind: from the W (270 degrees) at 7 MPH (6 KT) (direction variable):0
Visibility: greater than 7 mile(s):0
Sky conditions: mostly cloudy
Weather: light rain
Temperature: 55 F (13 C)
Dew Point: 53 F (12 C)
Relative Humidity: 93%
Pressure (altimeter): 29.85 in. Hg (1011 hPa)
ob: LSZR 232020Z AUTO 27006KT 230V290 9999 -RA BKN/// 13/12 Q1011
cycle: 20

Station Type Date Time Source
LSZR TAF 2014/12/22 20:03 UTC NOAA

TAF
AMD LSZR 222054Z 2220/2224 CNL

Example: see airport list